Time;durP1;ratioP1;P1;durP2;ratioP2;P2;SDS_P1;SDS_P2;PMS_P1;PMS_P2;Temp;Humidity;BMP_temperature;BMP_pressure;BME280_temperature;BME280_humidity;BME280_pressure;Samples;Min_cycle;Max_cycle;Signal;HPM_P1;HPM_P2
2023/12/29 00:01:31;;;;;;;5.80;1.30;;;;;;;10.98;66.29;100009.91;7391656;19;20348;-65
2023/12/29 00:03:58;;;;;;;4.00;1.02;;;;;;;11.01;66.06;100022.81;7394196;19;20364;-61
2023/12/29 00:06:25;;;;;;;3.95;1.17;;;;;;;11.08;65.98;100020.19;7393516;19;20328;-61
2023/12/29 00:08:52;;;;;;;7.45;1.42;;;;;;;11.07;65.93;100023.03;7394703;19;20379;-60
2023/12/29 00:11:19;;;;;;;4.07;1.20;;;;;;;11.08;65.80;100020.19;7391271;19;20364;-62
2023/12/29 00:13:47;;;;;;;4.72;1.48;;;;;;;11.07;65.62;100028.34;7398228;19;20455;-63
2023/12/29 00:16:17;;;;;;;5.03;1.10;;;;;;;11.13;65.79;100006.34;7393673;19;20352;-61
2023/12/29 00:18:44;;;;;;;6.18;1.27;;;;;;;11.11;65.74;100034.91;7395682;19;20361;-62
2023/12/29 00:21:11;;;;;;;4.10;1.35;;;;;;;11.09;65.56;100010.41;7392388;19;20353;-62
2023/12/29 00:23:38;;;;;;;5.67;1.17;;;;;;;11.09;65.77;100007.75;7394544;19;20361;-60
2023/12/29 00:26:05;;;;;;;4.05;1.05;;;;;;;11.09;65.48;100031.63;7393492;19;20376;-62
2023/12/29 00:28:31;;;;;;;4.40;1.10;;;;;;;11.13;65.57;100022.25;7392165;19;20348;-62
2023/12/29 00:30:58;;;;;;;3.00;1.05;;;;;;;11.19;65.75;100018.84;7391951;19;20333;-62
2023/12/29 00:33:29;;;;;;;4.70;1.42;;;;;;;11.14;65.77;100008.81;7392877;19;20352;-62
2023/12/29 00:35:57;;;;;;;6.32;1.50;;;;;;;11.17;65.88;100012.91;7394208;19;20376;-62
2023/12/29 00:38:27;;;;;;;4.03;1.02;;;;;;;11.12;65.75;100015.34;7391443;19;20348;-62
2023/12/29 00:40:54;;;;;;;3.65;1.10;;;;;;;11.10;65.96;100012.06;7394371;19;20372;-60
2023/12/29 00:43:22;;;;;;;4.43;1.67;;;;;;;11.15;65.78;100014.94;7393843;19;20401;-62
2023/12/29 00:45:50;;;;;;;5.13;1.23;;;;;;;11.17;66.12;99999.63;7392357;19;20503;-62
2023/12/29 00:48:16;;;;;;;4.38;1.20;;;;;;;11.12;66.11;100002.88;7394852;19;20357;-60
2023/12/29 00:50:45;;;;;;;3.78;0.93;;;;;;;11.14;66.40;99995.53;7390454;19;20730;-60
2023/12/29 00:53:11;;;;;;;5.70;1.40;;;;;;;11.15;66.37;99999.81;7394921;19;20360;-61
2023/12/29 00:55:38;;;;;;;3.92;1.10;;;;;;;11.12;66.57;99983.47;7392170;19;20356;-62
2023/12/29 00:58:05;;;;;;;4.88;1.40;;;;;;;11.11;66.70;100025.09;7392315;19;20368;-62
2023/12/29 01:00:32;;;;;;;7.43;1.42;;;;;;;11.14;66.79;99990.22;7394865;19;20384;-62
2023/12/29 01:03:00;;;;;;;4.10;1.10;;;;;;;11.20;66.86;99980.66;7390642;19;20373;-61
2023/12/29 01:05:27;;;;;;;6.13;1.55;;;;;;;11.18;67.04;99977.38;7389345;19;20360;-63
2023/12/29 01:07:54;;;;;;;4.68;1.08;;;;;;;11.11;67.64;100003.88;7390549;19;20872;-60
2023/12/29 01:10:21;;;;;;;5.20;1.10;;;;;;;11.17;67.87;99976.53;7391911;19;20840;-62
2023/12/29 01:12:48;;;;;;;4.03;1.08;;;;;;;11.14;67.80;99976.13;7390115;19;21893;-62
2023/12/29 01:15:15;;;;;;;5.22;1.33;;;;;;;11.09;68.39;99968.75;7390970;19;20356;-63
2023/12/29 01:17:41;;;;;;;4.03;1.30;;;;;;;11.04;68.01;99962.41;7389126;19;20386;-62
2023/12/29 01:20:09;;;;;;;4.85;1.02;;;;;;;11.08;68.36;99968.97;7395166;19;20368;-62
2023/12/29 01:22:35;;;;;;;6.25;1.48;;;;;;;11.08;68.29;99955.69;7391498;19;20350;-62
2023/12/29 01:25:02;;;;;;;3.85;1.30;;;;;;;11.07;68.72;99970.81;7394312;19;20386;-62
2023/12/29 01:27:30;;;;;;;4.70;1.30;;;;;;;11.00;68.54;99968.09;7393185;19;20363;-63
2023/12/29 01:29:56;;;;;;;4.43;1.20;;;;;;;11.04;68.80;99970.38;7391205;19;20362;-62
2023/12/29 01:32:23;;;;;;;4.13;1.33;;;;;;;11.00;68.70;99962.78;7390218;19;20375;-62
2023/12/29 01:34:50;;;;;;;5.18;1.50;;;;;;;11.00;68.87;99962.78;7393119;19;20377;-61
2023/12/29 01:37:17;;;;;;;4.05;1.17;;;;;;;11.00;69.01;99965.44;7394065;19;20356;-63
2023/12/29 01:39:44;;;;;;;5.03;1.05;;;;;;;11.01;69.22;99972.38;7393995;19;20900;-62
2023/12/29 01:42:11;;;;;;;3.60;1.35;;;;;;;11.02;69.04;99966.06;7389331;19;20839;-62
2023/12/29 01:44:38;;;;;;;6.55;1.58;;;;;;;11.05;69.47;99958.72;7394141;19;20690;-62
2023/12/29 01:47:13;;;;;;;4.30;1.00;;;;;;;11.02;69.29;99968.72;7394396;19;20363;-62
2023/12/29 01:49:40;;;;;;;4.90;1.10;;;;;;;11.04;69.44;99949.13;7386954;19;20357;-62
2023/12/29 01:52:07;;;;;;;6.20;1.45;;;;;;;10.96;69.46;99964.19;7390005;19;20357;-62
2023/12/29 01:54:38;;;;;;;5.75;1.48;;;;;;;11.00;69.80;99951.34;7393565;19;20356;-61
2023/12/29 01:57:08;;;;;;;5.03;1.40;;;;;;;10.99;70.29;99958.50;7389893;19;20372;-63
2023/12/29 01:59:35;;;;;;;5.15;1.20;;;;;;;10.97;70.99;99933.19;7390223;19;20361;-62
2023/12/29 02:02:02;;;;;;;4.13;0.80;;;;;;;10.95;71.80;99938.66;7386398;19;20418;-60
2023/12/29 02:04:30;;;;;;;3.87;1.30;;;;;;;10.94;72.04;99950.28;7392134;19;20376;-62
2023/12/29 02:06:57;;;;;;;2.90;1.00;;;;;;;10.95;72.06;99938.66;7391447;19;20907;-62
2023/12/29 02:09:25;;;;;;;4.68;1.00;;;;;;;10.95;72.17;99945.81;7387469;19;20719;-61
2023/12/29 02:11:51;;;;;;;3.63;1.30;;;;;;;10.90;72.43;99933.16;7389938;19;20360;-62
2023/12/29 02:14:19;;;;;;;6.00;1.30;;;;;;;10.86;72.61;99921.28;7391530;19;20420;-63
2023/12/29 02:17:01;;;;;;;4.23;1.20;;;;;;;10.87;72.83;99917.59;7390611;19;20384;-60
2023/12/29 02:19:43;;;;;;;5.43;1.50;;;;;;;10.90;72.64;99917.22;7390514;19;20373;-61
2023/12/29 02:22:12;;;;;;;3.17;1.00;;;;;;;10.86;72.58;99926.59;7392019;19;20332;-61
2023/12/29 02:24:45;;;;;;;5.40;1.33;;;;;;;10.85;72.72;99918.81;7392694;19;20424;-62
2023/12/29 02:27:37;;;;;;;6.65;1.30;;;;;;;10.85;72.84;99897.59;7388472;19;20690;-62
2023/12/29 02:30:12;;;;;;;2.97;0.95;;;;;;;10.88;72.81;99908.63;7382500;19;20392;-62
2023/12/29 02:32:42;;;;;;;6.60;1.45;;;;;;;10.87;72.96;99888.41;7383199;19;20365;-62
2023/12/29 02:35:17;;;;;;;4.13;1.35;;;;;;;10.88;73.12;99903.34;7387694;19;20344;-62
2023/12/29 02:37:44;;;;;;;6.03;1.25;;;;;;;10.86;73.17;99905.38;7389424;19;20385;-61
2023/12/29 02:40:11;;;;;;;4.45;1.20;;;;;;;10.88;73.22;99908.63;7390595;19;20344;-62
2023/12/29 02:42:44;;;;;;;4.20;0.90;;;;;;;10.93;73.37;99890.28;7386300;19;20381;-62
2023/12/29 02:45:10;;;;;;;6.13;1.00;;;;;;;10.97;73.54;99888.06;7391095;19;20385;-62
2023/12/29 02:47:37;;;;;;;6.00;1.55;;;;;;;10.97;73.64;99883.56;7388817;19;20341;-61
2023/12/29 02:50:04;;;;;;;4.47;1.00;;;;;;;10.99;73.76;99883.38;7389527;19;20347;-63
2023/12/29 02:52:32;;;;;;;3.22;0.95;;;;;;;10.95;74.14;99893.56;7387671;19;20368;-62
2023/12/29 02:54:58;;;;;;;7.25;1.30;;;;;;;10.98;73.72;99887.03;7389734;19;20672;-62
2023/12/29 02:57:25;;;;;;;4.28;1.20;;;;;;;10.96;73.87;99879.25;7390394;19;20352;-62
2023/12/29 02:59:52;;;;;;;4.70;1.13;;;;;;;10.98;74.02;99873.75;7389130;19;20380;-61
2023/12/29 03:02:19;;;;;;;3.33;1.02;;;;;;;10.98;73.80;99868.44;7386045;19;20336;-59
2023/12/29 03:04:47;;;;;;;4.78;1.30;;;;;;;11.01;73.97;99876.84;7391026;19;20357;-65
2023/12/29 03:07:13;;;;;;;3.17;1.20;;;;;;;11.03;73.96;99874.00;7388710;19;20360;-61
2023/12/29 03:09:41;;;;;;;4.33;1.00;;;;;;;10.99;74.13;99878.88;7388010;19;20377;-61
2023/12/29 03:12:09;;;;;;;5.15;1.35;;;;;;;11.02;74.38;99886.44;7384823;19;20344;-62
2023/12/29 03:14:36;;;;;;;3.50;1.00;;;;;;;11.06;74.61;99884.22;7387128;19;20320;-63
2023/12/29 03:17:02;;;;;;;4.30;1.00;;;;;;;11.00;74.83;99867.22;7388432;19;20349;-62
2023/12/29 03:19:29;;;;;;;4.65;0.95;;;;;;;11.04;74.83;99864.19;7387093;19;20363;-63
2023/12/29 03:21:56;;;;;;;4.55;1.10;;;;;;;10.99;74.86;99865.63;7388330;19;20340;-63
2023/12/29 03:24:23;;;;;;;3.38;1.05;;;;;;;11.04;74.90;99864.19;7387605;19;20324;-61
2023/12/29 03:26:49;;;;;;;6.97;1.17;;;;;;;11.10;74.73;99852.78;7390615;19;20356;-61
2023/12/29 03:29:16;;;;;;;5.90;1.10;;;;;;;11.12;74.79;99840.16;7395028;19;20364;-62
2023/12/29 03:31:43;;;;;;;4.43;0.90;;;;;;;11.16;74.58;99836.06;7394515;19;20348;-62
2023/12/29 03:34:11;;;;;;;4.65;1.10;;;;;;;11.16;74.59;99838.72;7396291;19;20332;-63
2023/12/29 03:36:38;;;;;;;5.95;1.10;;;;;;;11.14;74.28;99857.50;7391795;19;20372;-63
2023/12/29 03:39:04;;;;;;;4.55;1.10;;;;;;;11.16;74.33;99834.22;7396199;19;20979;-62
2023/12/29 03:41:31;;;;;;;4.05;1.05;;;;;;;11.15;73.81;99843.19;7394593;19;20373;-63
2023/12/29 03:43:59;;;;;;;4.50;0.95;;;;;;;11.19;73.83;99835.66;7393824;19;20460;-62
2023/12/29 03:46:26;;;;;;;4.30;0.90;;;;;;;11.20;73.52;99843.44;7393748;19;20377;-63
2023/12/29 03:48:52;;;;;;;3.08;0.80;;;;;;;11.20;73.36;99832.00;7396461;19;20883;-63
2023/12/29 03:51:20;;;;;;;3.45;0.93;;;;;;;11.23;72.94;99829.75;7393130;19;20364;-62
2023/12/29 03:53:46;;;;;;;3.75;0.80;;;;;;;11.23;72.95;99853.63;7394554;19;20828;-61
2023/12/29 03:56:16;;;;;;;3.78;0.70;;;;;;;11.18;71.91;99864.06;7394006;19;20365;-61
2023/12/29 03:58:44;;;;;;;2.20;0.50;;;;;;;11.24;71.05;99859.75;7394658;19;20440;-62
2023/12/29 04:01:12;;;;;;;3.63;0.65;;;;;;;11.31;71.04;99847.34;7393176;19;20353;-62
2023/12/29 04:03:39;;;;;;;2.42;0.70;;;;;;;11.30;71.36;99842.22;7395617;19;20373;-61
2023/12/29 04:06:07;;;;;;;1.42;0.50;;;;;;;11.21;72.01;99862.81;7393145;19;20384;-61
2023/12/29 04:08:34;;;;;;;2.65;0.60;;;;;;;11.15;72.94;99839.72;7395069;19;20365;-62
2023/12/29 04:11:01;;;;;;;2.37;0.53;;;;;;;11.07;74.32;99821.31;7393024;19;20523;-60
2023/12/29 04:13:28;;;;;;;1.70;0.52;;;;;;;10.92;75.38;99856.81;7393261;19;20381;-62
2023/12/29 04:15:55;;;;;;;2.17;0.60;;;;;;;10.86;76.06;99841.69;7392541;19;20365;-63
2023/12/29 04:18:23;;;;;;;4.78;0.80;;;;;;;10.76;76.88;99814.69;7392422;19;20343;-62
2023/12/29 04:20:50;;;;;;;1.95;0.50;;;;;;;10.68;77.62;99801.59;7396420;19;20745;-61
2023/12/29 04:23:17;;;;;;;3.65;0.80;;;;;;;10.67;77.75;99790.19;7392744;19;20842;-63
2023/12/29 04:25:44;;;;;;;2.97;0.73;;;;;;;10.65;77.93;99817.88;7395879;19;20348;-61
2023/12/29 04:28:11;;;;;;;2.42;0.73;;;;;;;10.64;78.39;99821.56;7392253;19;20375;-62
2023/12/29 04:30:38;;;;;;;3.30;0.60;;;;;;;10.60;78.32;99826.44;7395934;19;20353;-61
2023/12/29 04:33:06;;;;;;;3.60;0.90;;;;;;;10.60;78.56;99821.97;7392613;19;20363;-62
2023/12/29 04:35:33;;;;;;;2.07;0.60;;;;;;;10.62;78.52;99824.41;7393513;19;20348;-63
2023/12/29 04:38:01;;;;;;;4.18;1.17;;;;;;;10.64;78.55;99816.25;7391165;19;20336;-63
2023/12/29 04:40:28;;;;;;;2.83;0.98;;;;;;;10.60;78.41;99826.44;7393033;19;20359;-62
2023/12/29 04:42:55;;;;;;;4.05;0.80;;;;;;;10.64;77.96;99821.56;7393821;19;20357;-62
2023/12/29 04:45:22;;;;;;;3.50;0.80;;;;;;;10.65;78.21;99844.41;7392648;19;20363;-62
2023/12/29 04:47:49;;;;;;;2.13;0.68;;;;;;;10.66;77.87;99830.16;7392805;19;20378;-62
2023/12/29 04:50:16;;;;;;;2.08;0.50;;;;;;;10.65;78.11;99847.91;7396540;19;20552;-63
2023/12/29 04:52:43;;;;;;;2.65;0.73;;;;;;;10.63;78.00;99823.41;7393944;19;20356;-62
2023/12/29 04:55:09;;;;;;;3.38;0.80;;;;;;;10.64;78.21;99830.34;7394142;19;20364;-61
2023/12/29 04:57:36;;;;;;;2.90;0.90;;;;;;;10.64;77.97;99821.56;7392502;19;20369;-60
2023/12/29 05:00:04;;;;;;;3.27;1.03;;;;;;;10.65;78.22;99833.81;7390821;19;20367;-62
2023/12/29 05:02:31;;;;;;;3.30;0.88;;;;;;;10.61;77.91;99839.50;7390365;19;20352;-62
2023/12/29 05:04:57;;;;;;;2.90;0.80;;;;;;;10.61;79.12;99823.59;7393105;19;20468;-63
2023/12/29 05:07:24;;;;;;;3.85;0.88;;;;;;;10.56;79.57;99839.28;7393697;19;20333;-61
2023/12/29 05:09:51;;;;;;;3.22;0.73;;;;;;;10.52;80.17;99835.41;7391910;19;20348;-62
2023/12/29 05:12:18;;;;;;;2.65;0.65;;;;;;;10.43;79.97;99819.81;7389401;19;20355;-60
2023/12/29 05:14:44;;;;;;;3.58;0.70;;;;;;;10.39;80.18;99838.78;7393082;19;20360;-61
2023/12/29 05:17:11;;;;;;;2.22;0.68;;;;;;;10.39;80.42;99837.94;7391146;19;20360;-61
2023/12/29 05:19:37;;;;;;;2.28;1.13;;;;;;;10.33;80.89;99857.31;7390408;19;20893;-61
2023/12/29 05:22:04;;;;;;;3.40;0.80;;;;;;;10.34;81.48;99854.44;7391732;19;20344;-61
2023/12/29 05:24:31;;;;;;;2.78;0.80;;;;;;;10.36;81.81;99862.22;7391436;19;20360;-61
2023/12/29 05:26:59;;;;;;;3.05;1.15;;;;;;;10.33;82.41;99841.41;7391029;19;20883;-61
2023/12/29 05:29:25;;;;;;;2.95;0.80;;;;;;;10.31;83.26;99843.44;7390694;19;20697;-61
2023/12/29 05:31:52;;;;;;;2.83;0.80;;;;;;;10.31;83.59;99833.63;7390369;19;20484;-62
2023/12/29 05:34:19;;;;;;;2.28;0.90;;;;;;;10.27;83.94;99831.53;7383561;19;20364;-63
2023/12/29 05:36:46;;;;;;;3.88;0.88;;;;;;;10.28;83.99;99833.16;7390165;19;20368;-63
2023/12/29 05:39:16;;;;;;;4.38;1.13;;;;;;;10.32;84.05;99829.16;7390025;19;20373;-63
2023/12/29 05:41:43;;;;;;;2.85;1.00;;;;;;;10.30;84.24;99839.94;7388625;19;20378;-62
2023/12/29 05:44:10;;;;;;;5.07;1.23;;;;;;;10.35;84.23;99839.38;7390666;19;20435;-61
2023/12/29 05:46:36;;;;;;;4.83;1.10;;;;;;;10.37;84.29;99834.66;7389635;19;20388;-62
2023/12/29 05:49:03;;;;;;;2.88;1.10;;;;;;;10.35;84.89;99863.25;7388876;19;20682;-60
2023/12/29 05:51:30;;;;;;;4.05;0.93;;;;;;;10.37;85.18;99832.84;7388046;19;20372;-61
2023/12/29 05:53:56;;;;;;;4.28;1.20;;;;;;;10.32;86.03;99839.75;7388561;19;21082;-63
2023/12/29 05:56:23;;;;;;;4.20;1.30;;;;;;;10.32;86.75;99856.47;7387559;19;20368;-61
2023/12/29 05:58:52;;;;;;;4.53;1.30;;;;;;;10.28;86.60;99838.47;7388360;19;20365;-61
2023/12/29 06:01:19;;;;;;;4.38;1.45;;;;;;;10.25;86.34;99841.50;7387970;19;20909;-61
2023/12/29 06:03:46;;;;;;;4.50;1.40;;;;;;;10.29;86.53;99840.13;7386154;19;20876;-63
2023/12/29 06:06:13;;;;;;;4.18;1.15;;;;;;;10.29;86.33;99834.81;7385051;19;20336;-61
2023/12/29 06:08:40;;;;;;;4.35;1.10;;;;;;;10.28;86.60;99843.75;7388396;19;20355;-62
2023/12/29 06:11:07;;;;;;;3.85;1.00;;;;;;;10.31;86.15;99830.19;7387037;19;20352;-61
2023/12/29 06:13:33;;;;;;;5.32;1.25;;;;;;;10.32;86.34;99840.56;7382852;19;20386;-62
2023/12/29 06:16:00;;;;;;;4.93;1.17;;;;;;;10.31;86.20;99817.72;7386219;19;20868;-62
2023/12/29 06:18:27;;;;;;;5.70;1.52;;;;;;;10.31;85.94;99830.19;7387936;19;20882;-62
2023/12/29 06:20:54;;;;;;;4.60;1.30;;;;;;;10.35;85.77;99844.69;7387187;19;20404;-62
2023/12/29 06:23:21;;;;;;;4.65;1.23;;;;;;;10.33;85.87;99852.00;7386787;19;20829;-63
2023/12/29 06:25:47;;;;;;;4.90;1.73;;;;;;;10.39;87.54;99840.59;7386870;19;20336;-65
2023/12/29 06:28:14;;;;;;;6.90;1.50;;;;;;;10.29;88.00;99862.16;7387508;19;20353;-66
2023/12/29 06:30:41;;;;;;;7.72;1.58;;;;;;;10.27;88.54;99847.44;7384757;19;20352;-67
2023/12/29 06:33:08;;;;;;;5.05;1.55;;;;;;;10.18;88.77;99844.13;7383372;19;20365;-67
2023/12/29 06:35:35;;;;;;;5.68;1.50;;;;;;;10.06;89.84;99857.06;7385715;19;20863;-66
2023/12/29 06:38:02;;;;;;;7.88;2.17;;;;;;;9.96;91.21;99840.69;7385020;19;20353;-66
2023/12/29 06:40:29;;;;;;;6.68;1.67;;;;;;;9.88;91.41;99838.16;7386155;19;20713;-66
2023/12/29 06:42:55;;;;;;;5.90;1.80;;;;;;;9.87;91.52;99841.84;7382801;19;20382;-65
2023/12/29 06:45:22;;;;;;;5.68;1.83;;;;;;;9.85;91.79;99827.97;7385526;19;20348;-65
2023/12/29 06:47:49;;;;;;;4.60;1.88;;;;;;;9.84;91.63;99836.91;7378608;19;20377;-66
2023/12/29 06:50:16;;;;;;;7.97;2.10;;;;;;;9.77;91.23;99826.25;7382300;19;20435;-66
2023/12/29 06:52:42;;;;;;;6.10;1.63;;;;;;;9.75;91.07;99823.81;7387899;19;20385;-66
2023/12/29 06:55:09;;;;;;;5.93;1.55;;;;;;;9.71;90.60;99833.16;7387086;19;20365;-66
2023/12/29 06:57:36;;;;;;;9.10;1.85;;;;;;;9.73;90.11;99823.19;7388983;19;20361;-66
2023/12/29 07:00:04;;;;;;;7.25;1.85;;;;;;;9.78;90.30;99834.03;7388424;19;20429;-66
2023/12/29 07:02:31;;;;;;;4.65;1.70;;;;;;;9.80;89.33;99847.91;7396476;19;20412;-66
2023/12/29 07:04:57;;;;;;;5.72;1.40;;;;;;;9.84;88.82;99852.81;7397352;19;20360;-67
2023/12/29 07:07:25;;;;;;;6.35;1.90;;;;;;;9.89;88.59;99837.16;7398965;19;20684;-66
2023/12/29 07:09:52;;;;;;;7.32;1.77;;;;;;;9.93;87.97;99878.16;7392801;19;20885;-79
2023/12/29 07:12:19;;;;;;;7.32;1.92;;;;;;;9.97;87.06;99866.19;7392073;19;20348;-83
2023/12/29 07:14:45;;;;;;;6.82;1.55;;;;;;;10.05;86.17;99849.31;7382730;19;20352;-81
2023/12/29 07:17:12;;;;;;;5.20;1.42;;;;;;;10.12;86.15;99845.69;7371237;19;20379;-82
2023/12/29 07:19:39;;;;;;;6.85;1.60;;;;;;;10.16;85.53;99852.25;7370467;19;20646;-83
2023/12/29 07:22:06;;;;;;;8.75;1.70;;;;;;;10.18;84.88;99860.84;7367647;19;20368;-83
2023/12/29 07:24:35;;;;;;;8.52;1.90;;;;;;;10.27;84.63;99848.25;7365527;19;20781;-83
2023/12/29 07:27:03;;;;;;;5.67;1.47;;;;;;;10.31;84.87;99843.44;7370142;19;20348;-83
2023/12/29 07:29:30;;;;;;;8.07;1.85;;;;;;;10.31;83.83;99854.03;7370764;19;20360;-83
2023/12/29 07:31:57;;;;;;;4.25;1.50;;;;;;;10.39;83.45;99857.34;7371122;19;20364;-83
2023/12/29 07:34:24;;;;;;;5.63;1.60;;;;;;;10.41;83.13;99854.47;7371938;19;20663;-83
2023/12/29 07:36:51;;;;;;;6.15;1.50;;;;;;;10.46;82.09;99872.47;7372148;19;20345;-84
2023/12/29 07:39:18;;;;;;;7.22;2.00;;;;;;;10.50;81.42;99873.72;7371886;19;20376;-83
2023/12/29 07:41:45;;;;;;;6.35;1.92;;;;;;;10.54;81.15;99859.88;7372602;19;20384;-86
2023/12/29 07:44:12;;;;;;;6.90;1.55;;;;;;;10.58;80.42;99855.00;7372637;19;20390;-87
2023/12/29 07:46:40;;;;;;;9.05;1.98;;;;;;;10.63;80.30;99863.19;7369994;19;20712;-88
2023/12/29 07:49:07;;;;;;;7.90;1.73;;;;;;;10.68;79.71;99862.59;7371230;19;20364;-87
2023/12/29 07:51:38;;;;;;;7.23;1.80;;;;;;;10.70;79.67;99865.88;7372961;19;20443;-86
2023/12/29 07:54:05;;;;;;;6.43;1.95;;;;;;;10.72;79.48;99866.50;7368998;19;20376;-87
2023/12/29 07:56:32;;;;;;;5.40;1.73;;;;;;;10.74;79.32;99893.66;7371087;19;20341;-87
2023/12/29 07:58:58;;;;;;;6.88;1.58;;;;;;;10.78;79.40;99887.75;7368182;19;20364;-86
2023/12/29 08:01:26;;;;;;;6.97;1.70;;;;;;;10.80;79.52;99880.41;7372300;19;20363;-85
2023/12/29 08:03:53;;;;;;;6.47;1.30;;;;;;;10.77;78.32;99875.53;7372123;19;20840;-85
2023/12/29 08:06:20;;;;;;;6.32;1.63;;;;;;;10.81;77.91;99897.16;7368789;19;20365;-85
2023/12/29 08:08:47;;;;;;;8.23;2.17;;;;;;;10.85;78.02;99882.47;7372597;19;20360;-86
2023/12/29 08:11:16;;;;;;;5.63;1.65;;;;;;;10.91;78.02;99902.94;7371336;19;20363;-86
2023/12/29 08:13:44;;;;;;;7.93;1.90;;;;;;;10.93;77.35;99900.09;7363500;19;20388;-85
2023/12/29 08:16:11;;;;;;;9.35;1.70;;;;;;;10.90;76.18;99906.59;7341592;19;20360;-85
2023/12/29 08:18:38;;;;;;;7.55;1.85;;;;;;;10.97;75.40;99891.53;7357122;19;20959;-86
2023/12/29 08:21:05;;;;;;;6.10;1.42;;;;;;;11.03;75.93;99887.28;7365849;19;20415;-88
2023/12/29 08:23:32;;;;;;;6.50;1.52;;;;;;;11.06;75.38;99888.72;7376124;19;20656;-89
2023/12/29 08:25:58;;;;;;;6.50;1.63;;;;;;;11.08;74.50;99907.91;7374140;19;20351;-88
2023/12/29 08:28:26;;;;;;;7.50;1.60;;;;;;;11.10;74.33;99896.06;7374008;19;21267;-90
2023/12/29 08:30:53;;;;;;;5.55;1.50;;;;;;;11.11;74.45;99907.50;7378938;19;20343;-91
2023/12/29 08:33:21;;;;;;;6.97;1.33;;;;;;;11.17;74.27;99917.34;7378282;19;20360;-90
2023/12/29 08:35:49;;;;;;;5.28;2.00;;;;;;;11.15;74.31;99924.69;7378060;19;20356;-91
2023/12/29 08:38:15;;;;;;;5.22;1.42;;;;;;;11.20;74.24;99917.75;7385435;19;20359;-90
2023/12/29 08:40:42;;;;;;;7.65;1.70;;;;;;;11.18;74.08;99919.81;7393932;19;20768;-87
2023/12/29 08:43:09;;;;;;;9.73;2.00;;;;;;;11.25;74.02;99911.03;7397473;19;20360;-87
2023/12/29 08:45:36;;;;;;;6.55;1.80;;;;;;;11.27;73.68;99917.78;7398927;19;20352;-87
2023/12/29 08:48:03;;;;;;;6.55;1.90;;;;;;;11.32;73.22;99910.03;7399910;19;20344;-88
2023/12/29 08:50:32;;;;;;;9.27;1.87;;;;;;;11.35;73.17;99922.94;7400600;19;20376;-87
2023/12/29 08:52:59;;;;;;;5.55;1.75;;;;;;;11.39;72.58;99900.28;7401992;19;20363;-88
2023/12/29 08:55:25;;;;;;;6.28;1.95;;;;;;;11.37;72.48;99912.94;7402503;19;20385;-87
2023/12/29 08:57:52;;;;;;;5.60;1.67;;;;;;;11.36;71.78;99871.44;7399071;19;20357;-89
2023/12/29 09:00:19;;;;;;;7.75;1.65;;;;;;;11.43;71.76;99904.16;7396888;19;20363;-87
2023/12/29 09:02:46;;;;;;;8.15;1.85;;;;;;;11.44;71.22;99902.31;7398962;19;20361;-88
2023/12/29 09:05:13;;;;;;;8.68;2.17;;;;;;;11.42;70.96;99878.63;7396774;19;20367;-87
2023/12/29 09:07:40;;;;;;;8.13;1.90;;;;;;;11.47;70.78;99885.16;7398229;19;20340;-87
2023/12/29 09:10:08;;;;;;;9.77;2.00;;;;;;;11.50;71.26;99885.59;7401266;19;20728;-86
2023/12/29 09:12:35;;;;;;;5.30;1.38;;;;;;;11.49;70.95;99883.13;7397255;19;20353;-87
2023/12/29 09:15:02;;;;;;;6.82;1.85;;;;;;;11.56;71.12;99878.63;7396959;19;20448;-87
2023/12/29 09:17:29;;;;;;;10.57;1.83;;;;;;;11.56;70.67;99878.63;7395886;19;20356;-88
2023/12/29 09:19:56;;;;;;;10.45;2.28;;;;;;;11.55;70.93;99898.25;7397384;19;20356;-88
2023/12/29 09:22:35;;;;;;;9.10;1.70;;;;;;;11.57;70.96;99912.16;7395211;19;20483;-87
2023/12/29 09:25:02;;;;;;;6.22;1.55;;;;;;;11.59;71.27;99899.50;7393859;19;20341;-86
2023/12/29 09:27:29;;;;;;;8.77;1.58;;;;;;;11.58;71.60;99904.00;7394738;19;20352;-88
2023/12/29 09:29:55;;;;;;;6.68;1.80;;;;;;;11.54;71.90;99907.22;7394420;19;20393;-86
2023/12/29 09:32:22;;;;;;;7.18;1.40;;;;;;;11.50;71.46;99901.53;7394377;19;20929;-87
2023/12/29 09:34:49;;;;;;;8.47;1.60;;;;;;;11.51;71.72;99903.16;7394688;19;20359;-87
2023/12/29 09:37:17;;;;;;;12.23;1.83;;;;;;;11.49;72.18;99893.75;7394291;19;20400;-88
2023/12/29 09:39:44;;;;;;;7.82;1.50;;;;;;;11.45;72.24;99941.13;7393447;19;20420;-87
2023/12/29 09:42:20;;;;;;;5.55;1.45;;;;;;;11.39;73.94;99913.53;7396397;19;20381;-88
2023/12/29 09:44:51;;;;;;;6.20;1.38;;;;;;;11.28;74.67;99908.78;7394076;19;20375;-87
2023/12/29 09:47:26;;;;;;;6.63;1.53;;;;;;;11.18;76.69;99906.53;7423860;19;20604;-64
2023/12/29 09:49:54;;;;;;;6.82;1.48;;;;;;;11.09;77.63;99928.13;7425007;19;20350;-65
2023/12/29 09:52:22;;;;;;;6.40;1.30;;;;;;;10.95;78.96;99927.25;7425289;19;20371;-64
2023/12/29 09:54:52;;;;;;;6.75;1.42;;;;;;;10.84;80.13;99920.66;7424056;19;20327;-65
2023/12/29 09:57:20;;;;;;;4.38;1.10;;;;;;;10.68;81.25;99921.78;7423324;19;20363;-64
2023/12/29 09:59:51;;;;;;;6.80;1.30;;;;;;;10.54;82.62;99917.38;7424133;19;20392;-65
2023/12/29 10:02:20;;;;;;;5.35;1.25;;;;;;;10.50;83.28;99914.31;7424819;19;20942;-65
2023/12/29 10:04:46;;;;;;;3.92;1.05;;;;;;;10.32;83.62;99943.13;7423623;19;20396;-65
2023/12/29 10:07:21;;;;;;;4.72;1.20;;;;;;;10.19;84.20;99952.56;7429812;19;20392;-67
2023/12/29 10:09:52;;;;;;;4.50;1.20;;;;;;;10.05;85.68;99934.09;7430226;19;20355;-66
2023/12/29 10:12:21;;;;;;;4.00;0.80;;;;;;;9.86;86.50;99915.19;7431295;19;20360;-65
2023/12/29 10:15:17;;;;;;;4.80;1.00;;;;;;;9.68;87.99;99928.84;7427565;19;20367;-65
2023/12/29 10:18:02;;;;;;;5.25;1.02;;;;;;;9.51;89.28;99901.78;7427356;19;20726;-67
2023/12/29 10:21:08;;;;;;;4.00;1.00;;;;;;;9.35;90.44;99900.22;7427810;19;20707;-67
2023/12/29 10:23:44;;;;;;;4.22;1.20;;;;;;;9.35;91.57;99894.06;7425255;19;20404;-66
2023/12/29 10:26:11;;;;;;;6.07;1.13;;;;;;;9.32;92.12;99903.22;7426126;19;20502;-66
2023/12/29 10:28:38;;;;;;;5.22;1.10;;;;;;;9.30;93.25;99899.94;7425062;19;20368;-66
2023/12/29 10:31:05;;;;;;;5.13;1.25;;;;;;;9.28;95.07;99896.66;7424305;19;20865;-66
2023/12/29 10:33:32;;;;;;;4.97;1.10;;;;;;;9.34;95.13;99885.31;7423622;19;20336;-66
2023/12/29 10:36:06;;;;;;;5.05;1.08;;;;;;;9.30;95.66;99889.34;7427197;19;20360;-66
2023/12/29 10:38:33;;;;;;;4.05;1.20;;;;;;;9.32;96.06;99905.84;7425813;19;20380;-65
2023/12/29 10:41:11;;;;;;;6.97;1.20;;;;;;;9.32;96.99;99913.78;7424195;19;20377;-67
2023/12/29 10:43:38;;;;;;;6.85;1.60;;;;;;;9.31;97.99;99912.16;7425574;19;20364;-66
2023/12/29 10:46:08;;;;;;;5.00;1.43;;;;;;;9.28;99.02;99901.13;7423574;19;20367;-65
2023/12/29 10:48:35;;;;;;;4.33;1.40;;;;;;;9.23;99.50;99885.81;7425822;19;20347;-66
2023/12/29 10:51:04;;;;;;;4.00;1.05;;;;;;;9.26;99.78;99903.94;7424318;19;20344;-66
2023/12/29 10:53:34;;;;;;;3.80;1.00;;;;;;;9.17;100.00;99890.00;7424841;19;20376;-66
2023/12/29 10:56:19;;;;;;;7.15;1.27;;;;;;;9.19;100.00;99892.47;7425398;19;20381;-66
2023/12/29 10:58:57;;;;;;;5.13;1.10;;;;;;;9.20;100.00;99894.09;7393609;19;20378;-66
2023/12/29 11:01:25;;;;;;;4.28;1.08;;;;;;;9.28;100.00;99879.97;7395111;19;20757;-66
2023/12/29 11:03:59;;;;;;;5.90;1.20;;;;;;;9.30;100.00;99867.34;7395534;19;20399;-67
2023/12/29 11:06:28;;;;;;;4.90;1.17;;;;;;;9.36;100.00;99869.25;7394863;19;20631;-65
2023/12/29 11:08:56;;;;;;;4.60;0.93;;;;;;;9.38;100.00;99862.75;7393653;19;20358;-65
2023/12/29 11:11:23;;;;;;;3.72;1.00;;;;;;;9.41;100.00;99858.09;7396951;19;20357;-67
2023/12/29 11:13:50;;;;;;;3.90;0.90;;;;;;;9.39;99.83;99845.88;7395549;19;20344;-67
2023/12/29 11:16:21;;;;;;;3.10;0.80;;;;;;;9.48;99.52;99858.97;7395750;19;22177;-66
2023/12/29 11:18:50;;;;;;;2.58;0.85;;;;;;;9.52;98.90;99850.50;7393224;19;20389;-66
2023/12/29 11:21:21;;;;;;;3.42;1.20;;;;;;;9.61;98.73;99845.91;7396118;19;20373;-66
2023/12/29 11:23:48;;;;;;;3.80;1.17;;;;;;;9.67;97.58;99831.91;7394524;19;20340;-65
2023/12/29 11:26:15;;;;;;;2.47;0.70;;;;;;;9.72;97.21;99824.19;7394326;19;20668;-66
2023/12/29 11:28:42;;;;;;;2.30;0.70;;;;;;;9.76;95.76;99829.94;7392892;19;20333;-65
2023/12/29 11:31:09;;;;;;;2.58;0.70;;;;;;;9.87;95.48;99833.88;7394092;19;20358;-65
2023/12/29 11:33:41;;;;;;;3.47;0.80;;;;;;;9.92;93.93;99832.28;7392812;19;20382;-65
2023/12/29 11:36:14;;;;;;;3.03;0.70;;;;;;;10.00;93.89;99831.34;7394098;19;20344;-65
2023/12/29 11:39:11;;;;;;;1.90;0.50;;;;;;;10.09;93.07;99848.72;7379266;19;20332;-65